Time;durP1;ratioP1;P1;durP2;ratioP2;P2;SDS_P1;SDS_P2;PMS_P1;PMS_P2;Temp;Humidity;BMP_temperature;BMP_pressure;BME280_temperature;BME280_humidity;BME280_pressure;Samples;Min_cycle;Max_cycle;Signal;HPM_P1;HPM_P2
2022/06/23 00:00:18;;;;;;;;;16.50;16.50;;;;;;;;4991507;28;45603;-67
2022/06/23 00:02:44;;;;;;;;;26.75;25.75;;;;;;;;4992159;28;45789;-66
2022/06/23 00:05:15;;;;;;;;;28.50;27.00;;;;;;;;4992208;28;45550;-67
2022/06/23 00:07:43;;;;;;;;;28.25;26.00;;;;;;;;4960907;28;45728;-67
2022/06/23 00:10:20;;;;;;;;;22.50;22.50;;;;;;;;4956959;28;45436;-66
2022/06/23 00:12:46;;;;;;;;;22.00;22.00;;;;;;;;4972243;28;45490;-67
2022/06/23 00:15:18;;;;;;;;;27.25;25.00;;;;;;;;4966993;28;45951;-66
2022/06/23 00:17:45;;;;;;;;;26.50;26.50;;;;;;;;4968868;28;46566;-66
2022/06/23 00:20:22;;;;;;;;;26.50;26.50;;;;;;;;4971696;28;45717;-66
2022/06/23 00:22:51;;;;;;;;;25.50;24.75;;;;;;;;5003445;28;45536;-65
2022/06/23 00:25:36;;;;;;;;;28.75;26.50;;;;;;;;4971833;28;45479;-66
2022/06/23 00:28:02;;;;;;;;;29.50;25.50;;;;;;;;4954406;28;46738;-64
2022/06/23 00:30:38;;;;;;;;;31.75;29.50;;;;;;;;5003650;28;45527;-65
2022/06/23 00:33:07;;;;;;;;;29.50;28.00;;;;;;;;4971705;28;45408;-65
2022/06/23 00:35:34;;;;;;;;;29.00;28.25;;;;;;;;4971709;28;45434;-64
2022/06/23 00:37:59;;;;;;;;;33.50;32.50;;;;;;;;4971298;28;46029;-65
2022/06/23 00:40:24;;;;;;;;;29.50;29.00;;;;;;;;5002924;28;46461;-65
2022/06/23 00:42:52;;;;;;;;;33.75;33.50;;;;;;;;4970641;28;45444;-64
2022/06/23 00:45:39;;;;;;;;;39.75;33.25;;;;;;;;4970965;28;45620;-64
2022/06/23 00:48:05;;;;;;;;;32.75;32.50;;;;;;;;4971035;28;46036;-65
2022/06/23 00:50:30;;;;;;;;;39.50;36.50;;;;;;;;4971396;28;45819;-64
2022/06/23 00:52:55;;;;;;;;;34.00;32.75;;;;;;;;4971577;28;45552;-65
2022/06/23 00:55:38;;;;;;;;;38.25;32.75;;;;;;;;4971705;28;46185;-64
2022/06/23 00:58:18;;;;;;;;;33.25;33.00;;;;;;;;4971377;28;46427;-66
2022/06/23 01:00:44;;;;;;;;;29.00;27.75;;;;;;;;4971411;28;45574;-65
2022/06/23 01:03:16;;;;;;;;;33.75;33.00;;;;;;;;4971519;28;45622;-65
2022/06/23 01:05:50;;;;;;;;;33.00;30.00;;;;;;;;4969755;28;45567;-64
2022/06/23 01:08:28;;;;;;;;;28.75;27.75;;;;;;;;4971005;28;45896;-64
2022/06/23 01:11:17;;;;;;;;;31.50;30.75;;;;;;;;4970742;28;45597;-62
2022/06/23 01:13:49;;;;;;;;;31.50;30.50;;;;;;;;4970760;28;45498;-63
2022/06/23 01:16:18;;;;;;;;;36.75;35.25;;;;;;;;4970946;28;45553;-64
2022/06/23 01:18:52;;;;;;;;;31.50;29.75;;;;;;;;4970991;28;46443;-64
2022/06/23 01:21:23;;;;;;;;;31.50;30.50;;;;;;;;4971275;28;45493;-63
2022/06/23 01:23:54;;;;;;;;;30.75;29.50;;;;;;;;4970726;28;46400;-63
2022/06/23 01:26:38;;;;;;;;;30.50;28.25;;;;;;;;4997067;28;45553;-64
2022/06/23 01:29:07;;;;;;;;;30.25;30.25;;;;;;;;4993769;28;47445;-63
2022/06/23 01:32:05;;;;;;;;;32.00;31.75;;;;;;;;4970784;28;45917;-63
2022/06/23 01:34:38;;;;;;;;;26.75;26.75;;;;;;;;4948286;28;45974;-63
2022/06/23 01:37:13;;;;;;;;;33.00;31.75;;;;;;;;4948467;28;45554;-64
2022/06/23 01:39:43;;;;;;;;;33.75;32.25;;;;;;;;4949034;28;45850;-63
2022/06/23 01:42:13;;;;;;;;;27.00;27.00;;;;;;;;4964876;28;45437;-63
2022/06/23 01:44:54;;;;;;;;;31.75;28.25;;;;;;;;4948114;28;45490;-64
2022/06/23 01:47:28;;;;;;;;;29.75;29.00;;;;;;;;4947886;28;45521;-63
2022/06/23 01:49:58;;;;;;;;;29.50;29.00;;;;;;;;4947640;28;46690;-65
2022/06/23 01:52:24;;;;;;;;;28.25;28.00;;;;;;;;4948139;28;46426;-64
2022/06/23 01:54:52;;;;;;;;;31.00;29.25;;;;;;;;4948486;28;45537;-65
2022/06/23 01:57:32;;;;;;;;;28.25;25.75;;;;;;;;4930154;28;45684;-64
2022/06/23 02:00:07;;;;;;;;;31.75;30.50;;;;;;;;4932901;28;47500;-64
2022/06/23 02:02:41;;;;;;;;;32.50;31.50;;;;;;;;4946397;28;46124;-63
2022/06/23 02:05:30;;;;;;;;;31.50;29.75;;;;;;;;4947854;28;45922;-63
2022/06/23 02:08:13;;;;;;;;;33.00;31.75;;;;;;;;4945250;28;45595;-64
2022/06/23 02:10:44;;;;;;;;;28.00;26.00;;;;;;;;4971616;28;47521;-64
2022/06/23 02:13:30;;;;;;;;;32.00;32.00;;;;;;;;4955045;28;45553;-65
2022/06/23 02:16:13;;;;;;;;;39.50;34.50;;;;;;;;4970181;28;45720;-64
2022/06/23 02:18:44;;;;;;;;;30.00;30.00;;;;;;;;4970636;28;45579;-64
2022/06/23 02:21:18;;;;;;;;;40.25;36.25;;;;;;;;4970292;28;46612;-65
2022/06/23 02:23:55;;;;;;;;;29.25;29.25;;;;;;;;4992733;28;46445;-64
2022/06/23 02:26:26;;;;;;;;;34.75;31.25;;;;;;;;4964214;28;45414;-64
2022/06/23 02:29:10;;;;;;;;;35.00;33.00;;;;;;;;4969893;28;45612;-64
2022/06/23 02:31:52;;;;;;;;;31.75;31.25;;;;;;;;5001252;28;48009;-64
2022/06/23 02:34:32;;;;;;;;;34.50;30.50;;;;;;;;4987030;28;46237;-64
2022/06/23 02:37:00;;;;;;;;;33.25;32.25;;;;;;;;4970198;28;45682;-63
2022/06/23 02:39:32;;;;;;;;;34.25;32.00;;;;;;;;4970403;28;45540;-65
2022/06/23 02:42:00;;;;;;;;;29.75;28.25;;;;;;;;4969498;28;46924;-64
2022/06/23 02:44:28;;;;;;;;;35.50;34.00;;;;;;;;4969463;28;45592;-64
2022/06/23 02:47:02;;;;;;;;;35.00;32.00;;;;;;;;4969887;28;45501;-65
2022/06/23 02:49:46;;;;;;;;;30.25;28.25;;;;;;;;5001272;28;45665;-65
2022/06/23 02:52:23;;;;;;;;;32.00;31.00;;;;;;;;4954724;28;45601;-65
2022/06/23 02:54:57;;;;;;;;;30.25;30.25;;;;;;;;4968357;28;46391;-64
2022/06/23 02:57:26;;;;;;;;;32.75;30.00;;;;;;;;4987826;28;45462;-64
2022/06/23 02:59:57;;;;;;;;;40.25;35.50;;;;;;;;4967949;28;45403;-65
2022/06/23 03:02:22;;;;;;;;;35.75;32.75;;;;;;;;4969273;28;45770;-63
2022/06/23 03:04:51;;;;;;;;;30.50;28.50;;;;;;;;4969636;28;46193;-63
2022/06/23 03:07:33;;;;;;;;;38.00;30.25;;;;;;;;4969980;28;45945;-63
2022/06/23 03:10:03;;;;;;;;;37.00;34.25;;;;;;;;4973280;28;46265;-63
2022/06/23 03:12:54;;;;;;;;;32.75;31.75;;;;;;;;4973329;28;46524;-65
2022/06/23 03:15:29;;;;;;;;;35.50;33.00;;;;;;;;4950642;28;45835;-64
2022/06/23 03:17:57;;;;;;;;;35.50;32.00;;;;;;;;4950211;28;45863;-65
2022/06/23 03:20:22;;;;;;;;;38.00;35.00;;;;;;;;4950806;28;45598;-63
2022/06/23 03:23:04;;;;;;;;;30.00;29.25;;;;;;;;4951069;28;46651;-64
2022/06/23 03:25:38;;;;;;;;;32.50;32.00;;;;;;;;4950134;28;45662;-64
2022/06/23 03:28:24;;;;;;;;;25.75;22.75;;;;;;;;4950293;28;45627;-64
2022/06/23 03:30:52;;;;;;;;;11.75;11.75;;;;;;;;4950023;28;45835;-64
2022/06/23 03:33:21;;;;;;;;;11.25;9.50;;;;;;;;4950137;28;45553;-65
2022/06/23 03:35:50;;;;;;;;;10.75;10.25;;;;;;;;4949479;28;45814;-65
2022/06/23 03:41:36;;;;;;;;;5.25;5.25;;;;;;;;4950129;28;45609;-65
2022/06/23 03:44:00;;;;;;;;;6.50;6.25;;;;;;;;4949777;28;45531;-64
2022/06/23 03:46:29;;;;;;;;;8.50;5.25;;;;;;;;4950150;28;45560;-63
2022/06/23 03:48:58;;;;;;;;;6.50;4.50;;;;;;;;4934085;28;45677;-65
2022/06/23 03:51:26;;;;;;;;;6.25;6.00;;;;;;;;4954097;28;45495;-65
2022/06/23 03:54:04;;;;;;;;;3.25;3.25;;;;;;;;4969200;28;48649;-65
2022/06/23 03:56:34;;;;;;;;;4.25;4.25;;;;;;;;4996936;28;45517;-65
2022/06/23 03:59:00;;;;;;;;;5.00;5.00;;;;;;;;4963831;28;45951;-65
2022/06/23 04:01:29;;;;;;;;;4.75;4.75;;;;;;;;4972278;28;45431;-65
2022/06/23 04:04:15;;;;;;;;;4.50;4.50;;;;;;;;4972148;28;45443;-65
2022/06/23 04:06:47;;;;;;;;;4.50;4.50;;;;;;;;4987235;28;46413;-65
2022/06/23 04:09:21;;;;;;;;;7.75;7.75;;;;;;;;4967926;28;45731;-64
2022/06/23 04:11:46;;;;;;;;;5.25;5.25;;;;;;;;4969719;28;45487;-65
2022/06/23 04:14:15;;;;;;;;;4.50;4.50;;;;;;;;4971636;28;46686;-64
2022/06/23 04:16:41;;;;;;;;;4.00;4.00;;;;;;;;4970564;28;45495;-65
2022/06/23 04:19:10;;;;;;;;;3.25;3.25;;;;;;;;4972090;28;45418;-65
2022/06/23 04:21:40;;;;;;;;;4.50;3.25;;;;;;;;4968539;28;45437;-65
2022/06/23 04:24:11;;;;;;;;;4.00;4.00;;;;;;;;4971942;28;45497;-65
2022/06/23 04:26:40;;;;;;;;;4.25;4.25;;;;;;;;4971476;28;45468;-65
2022/06/23 04:29:25;;;;;;;;;3.50;3.50;;;;;;;;4971842;28;45479;-65
2022/06/23 04:31:53;;;;;;;;;4.75;4.50;;;;;;;;4967303;28;45978;-64
2022/06/23 04:34:20;;;;;;;;;3.75;3.75;;;;;;;;4970219;28;45696;-65
2022/06/23 04:36:46;;;;;;;;;4.75;3.75;;;;;;;;4971767;28;45537;-65
2022/06/23 04:39:25;;;;;;;;;3.75;2.25;;;;;;;;4972045;28;45565;-65
2022/06/23 04:41:59;;;;;;;;;4.50;4.50;;;;;;;;4993454;28;45583;-66
2022/06/23 04:44:27;;;;;;;;;3.75;3.75;;;;;;;;4966039;28;46644;-65
2022/06/23 04:47:13;;;;;;;;;4.25;2.75;;;;;;;;4971382;28;45616;-65
2022/06/23 04:49:44;;;;;;;;;4.50;4.00;;;;;;;;4967339;28;45508;-66
2022/06/23 04:52:16;;;;;;;;;3.75;3.75;;;;;;;;4956292;28;45563;-66
2022/06/23 04:54:41;;;;;;;;;3.25;3.25;;;;;;;;4970280;28;48770;-64
2022/06/23 04:57:15;;;;;;;;;4.00;4.00;;;;;;;;4971413;28;45580;-65
2022/06/23 04:59:44;;;;;;;;;4.00;4.00;;;;;;;;4971454;28;45526;-65
2022/06/23 05:02:12;;;;;;;;;5.00;5.00;;;;;;;;4971458;28;45661;-64
2022/06/23 05:04:39;;;;;;;;;5.75;4.00;;;;;;;;5002632;28;47932;-65
2022/06/23 05:07:05;;;;;;;;;3.50;3.00;;;;;;;;4971128;28;45368;-65
2022/06/23 05:09:30;;;;;;;;;7.75;5.00;;;;;;;;4970558;28;46057;-64
2022/06/23 05:11:58;;;;;;;;;5.25;4.00;;;;;;;;4969760;28;45463;-66
2022/06/23 05:14:33;;;;;;;;;6.00;5.00;;;;;;;;5001908;28;48642;-66
2022/06/23 05:17:05;;;;;;;;;3.75;3.25;;;;;;;;4970959;28;45637;-65
2022/06/23 05:19:33;;;;;;;;;3.00;3.00;;;;;;;;4971069;28;46039;-65
2022/06/23 05:22:01;;;;;;;;;3.50;3.25;;;;;;;;4971047;28;45399;-65
2022/06/23 05:24:33;;;;;;;;;5.50;3.50;;;;;;;;4971116;28;46221;-65
2022/06/23 05:27:00;;;;;;;;;4.25;4.25;;;;;;;;4991694;28;46310;-65
2022/06/23 05:29:26;;;;;;;;;5.00;5.00;;;;;;;;4965939;28;45533;-65
2022/06/23 05:31:54;;;;;;;;;4.50;3.50;;;;;;;;4970071;28;45561;-63
2022/06/23 05:34:28;;;;;;;;;3.75;3.50;;;;;;;;4970747;28;45603;-65
2022/06/23 05:36:57;;;;;;;;;4.25;3.75;;;;;;;;4970895;28;45777;-65
2022/06/23 05:39:27;;;;;;;;;4.00;4.00;;;;;;;;4989193;28;46033;-65
2022/06/23 05:41:55;;;;;;;;;3.75;3.75;;;;;;;;4969250;28;45586;-65
2022/06/23 05:44:25;;;;;;;;;6.75;4.50;;;;;;;;4970217;28;46322;-64
2022/06/23 05:46:51;;;;;;;;;4.00;4.00;;;;;;;;4970684;28;45836;-66
2022/06/23 05:49:22;;;;;;;;;3.75;2.75;;;;;;;;5002243;28;45833;-66
2022/06/23 05:51:59;;;;;;;;;5.75;3.75;;;;;;;;4970864;28;45411;-66
2022/06/23 05:54:27;;;;;;;;;4.00;4.00;;;;;;;;4971161;28;46173;-64
2022/06/23 05:56:52;;;;;;;;;4.00;4.00;;;;;;;;4970327;28;45954;-67
2022/06/23 05:59:35;;;;;;;;;8.75;5.50;;;;;;;;4970550;28;45636;-67
2022/06/23 06:02:11;;;;;;;;;4.00;3.50;;;;;;;;4970496;28;45689;-68
2022/06/23 06:04:49;;;;;;;;;3.75;3.75;;;;;;;;4970252;28;46090;-67
2022/06/23 06:07:16;;;;;;;;;5.00;5.00;;;;;;;;4952828;28;45627;-68
2022/06/23 06:09:41;;;;;;;;;7.50;5.00;;;;;;;;4970871;28;45600;-67
2022/06/23 06:12:10;;;;;;;;;4.75;4.00;;;;;;;;4970314;28;45401;-67
2022/06/23 06:14:39;;;;;;;;;6.50;4.00;;;;;;;;4970067;28;47919;-67
2022/06/23 06:17:05;;;;;;;;;5.25;5.25;;;;;;;;5001584;28;45600;-67
2022/06/23 06:19:32;;;;;;;;;7.50;6.50;;;;;;;;4970497;28;45487;-68
2022/06/23 06:21:58;;;;;;;;;5.75;5.75;;;;;;;;4970288;28;45653;-68
2022/06/23 06:24:34;;;;;;;;;7.00;7.00;;;;;;;;4970331;28;46168;-67
2022/06/23 06:27:01;;;;;;;;;8.75;8.00;;;;;;;;4969651;28;45534;-67
2022/06/23 06:29:31;;;;;;;;;10.00;8.00;;;;;;;;4969813;28;45997;-67
2022/06/23 06:32:15;;;;;;;;;10.50;7.75;;;;;;;;4969734;28;45568;-66
2022/06/23 06:34:51;;;;;;;;;6.00;6.00;;;;;;;;4969511;28;45765;-67
2022/06/23 06:37:18;;;;;;;;;10.25;6.25;;;;;;;;4955167;28;45598;-68
2022/06/23 06:39:50;;;;;;;;;6.75;5.00;;;;;;;;4969942;28;45456;-66
2022/06/23 06:42:36;;;;;;;;;8.25;8.25;;;;;;;;4970283;28;45769;-67
2022/06/23 06:45:03;;;;;;;;;6.00;6.00;;;;;;;;4993421;28;47896;-67
2022/06/23 06:47:31;;;;;;;;;8.00;7.25;;;;;;;;4999923;28;46230;-68
2022/06/23 06:50:02;;;;;;;;;6.25;6.25;;;;;;;;4973221;28;45458;-67
2022/06/23 06:52:27;;;;;;;;;5.00;5.00;;;;;;;;4973368;28;45958;-68
2022/06/23 06:55:03;;;;;;;;;11.50;7.00;;;;;;;;4971714;28;47603;-69
2022/06/23 06:57:33;;;;;;;;;7.00;7.00;;;;;;;;4972286;28;46806;-68
2022/06/23 07:00:08;;;;;;;;;6.50;5.50;;;;;;;;4968544;28;45611;-68
2022/06/23 07:02:37;;;;;;;;;5.25;4.50;;;;;;;;4997275;28;45603;-69
2022/06/23 07:05:09;;;;;;;;;6.00;5.25;;;;;;;;4964321;28;45544;-68
2022/06/23 07:07:38;;;;;;;;;7.50;4.00;;;;;;;;4973032;28;45399;-68
2022/06/23 07:10:11;;;;;;;;;5.50;4.00;;;;;;;;4971784;28;45523;-69
2022/06/23 07:12:40;;;;;;;;;9.00;7.75;;;;;;;;4973471;28;45688;-68
2022/06/23 07:15:14;;;;;;;;;8.00;5.75;;;;;;;;4972658;28;45915;-69
2022/06/23 07:17:51;;;;;;;;;7.25;7.00;;;;;;;;4972642;28;45771;-68
2022/06/23 07:20:19;;;;;;;;;7.75;7.75;;;;;;;;4972633;28;45635;-67
2022/06/23 07:22:50;;;;;;;;;7.25;6.00;;;;;;;;4972606;28;45597;-67
2022/06/23 07:25:24;;;;;;;;;4.50;4.50;;;;;;;;4972402;28;45718;-68
2022/06/23 07:27:58;;;;;;;;;8.25;8.25;;;;;;;;4971200;28;45498;-67
2022/06/23 07:30:32;;;;;;;;;8.00;8.00;;;;;;;;4968495;28;45532;-67
2022/06/23 07:33:16;;;;;;;;;6.75;6.50;;;;;;;;4971369;28;45510;-67
2022/06/23 07:35:48;;;;;;;;;8.50;7.75;;;;;;;;4995946;28;47640;-67
2022/06/23 07:38:19;;;;;;;;;7.75;6.25;;;;;;;;4965817;28;45702;-67
2022/06/23 07:40:51;;;;;;;;;6.00;6.00;;;;;;;;4972442;28;45522;-67
2022/06/23 07:43:19;;;;;;;;;7.00;7.00;;;;;;;;4972483;28;45881;-67
2022/06/23 07:45:55;;;;;;;;;6.00;5.25;;;;;;;;4972594;28;45744;-67
2022/06/23 07:48:21;;;;;;;;;5.25;5.00;;;;;;;;4970899;28;45490;-68
2022/06/23 07:50:46;;;;;;;;;4.50;4.50;;;;;;;;4972206;28;45533;-68
2022/06/23 07:53:19;;;;;;;;;5.00;5.00;;;;;;;;4972024;28;45510;-68
2022/06/23 07:55:45;;;;;;;;;5.50;5.50;;;;;;;;4971706;28;45482;-67
2022/06/23 07:58:14;;;;;;;;;6.75;4.00;;;;;;;;4972191;28;45668;-68
2022/06/23 08:00:40;;;;;;;;;6.00;5.50;;;;;;;;4971616;28;45475;-68
2022/06/23 08:03:12;;;;;;;;;6.75;5.50;;;;;;;;4972093;28;45683;-67
2022/06/23 08:05:43;;;;;;;;;6.00;5.75;;;;;;;;4995923;28;46596;-66
2022/06/23 08:08:12;;;;;;;;;6.00;6.00;;;;;;;;4959741;28;45421;-68
2022/06/23 08:10:38;;;;;;;;;7.25;7.25;;;;;;;;4959217;28;45731;-66
2022/06/23 08:13:12;;;;;;;;;9.75;9.25;;;;;;;;4972040;28;45949;-69
2022/06/23 08:18:36;;;;;;;;;6.50;6.00;;;;;;;;4968421;28;45569;-68
2022/06/23 08:21:10;;;;;;;;;7.50;6.75;;;;;;;;4971777;28;45620;-67
2022/06/23 08:23:44;;;;;;;;;6.00;6.00;;;;;;;;4971911;28;45530;-68
2022/06/23 08:26:10;;;;;;;;;7.00;7.00;;;;;;;;4971519;28;46434;-69
2022/06/23 08:28:37;;;;;;;;;8.00;6.00;;;;;;;;4971723;28;45489;-66
2022/06/23 08:31:03;;;;;;;;;6.50;6.50;;;;;;;;4971841;28;45439;-67
2022/06/23 08:33:29;;;;;;;;;7.25;7.25;;;;;;;;4972258;28;45814;-67
2022/06/23 08:35:56;;;;;;;;;6.25;6.25;;;;;;;;4971394;28;45855;-69
2022/06/23 08:38:34;;;;;;;;;7.00;6.25;;;;;;;;4969932;28;46008;-68
2022/06/23 08:41:08;;;;;;;;;6.00;6.00;;;;;;;;4971532;28;45652;-68
2022/06/23 08:43:46;;;;;;;;;7.00;6.75;;;;;;;;5003163;28;45510;-68
2022/06/23 08:46:20;;;;;;;;;6.50;5.25;;;;;;;;4987348;28;48512;-68
2022/06/23 08:49:00;;;;;;;;;7.00;7.00;;;;;;;;4971785;28;45532;-67
2022/06/23 08:51:36;;;;;;;;;6.00;5.50;;;;;;;;4967358;28;45554;-67
2022/06/23 08:54:17;;;;;;;;;4.75;4.75;;;;;;;;4970761;28;45807;-68
2022/06/23 08:56:53;;;;;;;;;6.00;6.00;;;;;;;;4971010;28;46428;-68
2022/06/23 08:59:44;;;;;;;;;5.50;5.50;;;;;;;;4971105;28;45451;-66
2022/06/23 09:02:17;;;;;;;;;4.75;4.75;;;;;;;;4969828;28;45429;-68
2022/06/23 09:04:42;;;;;;;;;6.75;5.75;;;;;;;;4970989;28;45426;-68
2022/06/23 09:07:20;;;;;;;;;7.25;6.00;;;;;;;;4968709;28;48457;-69
2022/06/23 09:10:04;;;;;;;;;5.25;5.25;;;;;;;;4966647;28;45462;-68
2022/06/23 09:12:33;;;;;;;;;4.00;4.00;;;;;;;;4971509;28;45484;-68
2022/06/23 09:15:11;;;;;;;;;6.00;6.00;;;;;;;;4971066;28;45708;-68
2022/06/23 09:17:52;;;;;;;;;6.50;5.00;;;;;;;;4970656;28;46297;-69
2022/06/23 09:20:35;;;;;;;;;3.25;3.00;;;;;;;;4970745;28;45596;-69
2022/06/23 09:23:00;;;;;;;;;7.00;7.00;;;;;;;;5002177;28;46099;-69
2022/06/23 09:25:45;;;;;;;;;6.75;6.75;;;;;;;;4968018;28;45613;-68
2022/06/23 09:28:14;;;;;;;;;5.00;5.00;;;;;;;;4952625;28;47578;-68
2022/06/23 09:30:42;;;;;;;;;4.25;4.25;;;;;;;;4971527;28;45693;-68
2022/06/23 09:33:25;;;;;;;;;6.50;6.50;;;;;;;;4970711;28;45788;-68
2022/06/23 09:36:16;;;;;;;;;5.50;5.00;;;;;;;;4992934;28;45832;-68
2022/06/23 09:38:53;;;;;;;;;6.00;6.00;;;;;;;;4967251;28;45628;-68
2022/06/23 09:41:37;;;;;;;;;4.75;4.75;;;;;;;;4996966;28;46179;-68
2022/06/23 09:44:05;;;;;;;;;4.25;4.25;;;;;;;;4961932;28;45426;-68
2022/06/23 09:46:36;;;;;;;;;4.50;4.00;;;;;;;;4970587;28;45896;-68
2022/06/23 09:49:17;;;;;;;;;5.50;3.00;;;;;;;;4970281;28;45635;-68
2022/06/23 09:52:02;;;;;;;;;4.00;4.00;;;;;;;;4967380;28;45767;-68
2022/06/23 09:54:37;;;;;;;;;3.50;3.00;;;;;;;;4988408;28;45607;-67
2022/06/23 09:57:02;;;;;;;;;4.75;4.75;;;;;;;;4990702;28;45696;-69
2022/06/23 09:59:27;;;;;;;;;3.75;3.75;;;;;;;;4965172;28;45617;-68
2022/06/23 10:02:13;;;;;;;;;4.00;4.00;;;;;;;;5001752;28;46211;-67
2022/06/23 10:04:41;;;;;;;;;4.50;4.00;;;;;;;;4948201;28;45537;-68
2022/06/23 10:07:12;;;;;;;;;5.00;5.00;;;;;;;;4947864;28;45703;-68
2022/06/23 10:09:37;;;;;;;;;4.50;4.50;;;;;;;;4964684;28;46749;-69
2022/06/23 10:12:08;;;;;;;;;5.00;4.50;;;;;;;;4947687;28;45672;-70
2022/06/23 10:15:00;;;;;;;;;5.50;5.50;;;;;;;;4947861;28;45447;-69
2022/06/23 10:17:43;;;;;;;;;5.00;5.00;;;;;;;;4947503;28;45493;-70
2022/06/23 10:20:22;;;;;;;;;6.50;4.00;;;;;;;;4947731;28;45947;-69
2022/06/23 10:23:08;;;;;;;;;4.50;4.50;;;;;;;;4931472;28;46301;-66
2022/06/23 10:25:40;;;;;;;;;6.25;5.00;;;;;;;;4947645;28;45467;-68
2022/06/23 10:28:11;;;;;;;;;4.25;4.25;;;;;;;;4947528;28;45517;-67
2022/06/23 10:31:02;;;;;;;;;4.50;4.25;;;;;;;;4943882;28;45629;-67
2022/06/23 10:33:36;;;;;;;;;3.75;3.75;;;;;;;;4946877;28;45558;-66
2022/06/23 10:36:16;;;;;;;;;5.00;5.00;;;;;;;;4947398;28;46195;-68
2022/06/23 10:38:54;;;;;;;;;3.00;3.00;;;;;;;;4931065;28;45649;-68
2022/06/23 10:41:23;;;;;;;;;4.00;4.00;;;;;;;;4955066;28;49057;-68
2022/06/23 10:43:51;;;;;;;;;4.25;3.75;;;;;;;;4969630;28;45989;-68
2022/06/23 10:46:23;;;;;;;;;2.00;1.75;;;;;;;;5001479;28;45683;-69
2022/06/23 10:48:51;;;;;;;;;5.00;5.00;;;;;;;;4969965;28;45517;-68
2022/06/23 10:51:35;;;;;;;;;4.00;4.00;;;;;;;;4989168;28;48595;-69
2022/06/23 10:54:00;;;;;;;;;4.50;4.50;;;;;;;;4968626;28;45557;-68
2022/06/23 10:56:34;;;;;;;;;6.50;6.25;;;;;;;;4969567;28;45487;-69
2022/06/23 10:59:07;;;;;;;;;5.25;5.25;;;;;;;;4969878;28;45601;-69
2022/06/23 11:01:50;;;;;;;;;4.75;4.00;;;;;;;;5000785;28;45814;-68
2022/06/23 11:04:35;;;;;;;;;6.50;6.50;;;;;;;;4954516;28;45847;-69
2022/06/23 11:07:03;;;;;;;;;5.00;5.00;;;;;;;;4967920;28;45867;-67
2022/06/23 11:09:44;;;;;;;;;5.00;4.00;;;;;;;;4987165;28;45471;-68
2022/06/23 11:12:28;;;;;;;;;6.50;6.50;;;;;;;;4965932;28;47799;-69
2022/06/23 11:14:59;;;;;;;;;6.25;5.00;;;;;;;;4969214;28;45564;-69
2022/06/23 11:17:34;;;;;;;;;3.00;3.00;;;;;;;;4995381;28;45881;-69
2022/06/23 11:20:08;;;;;;;;;1.75;1.50;;;;;;;;4959071;28;45610;-69
2022/06/23 11:22:46;;;;;;;;;5.25;4.75;;;;;;;;5000825;28;48102;-69
2022/06/23 11:25:11;;;;;;;;;3.75;3.25;;;;;;;;4985279;28;47528;-68
2022/06/23 11:27:55;;;;;;;;;5.00;5.00;;;;;;;;4965724;28;45673;-68
2022/06/23 11:30:35;;;;;;;;;5.00;5.00;;;;;;;;4990928;28;45623;-69
2022/06/23 11:33:19;;;;;;;;;4.75;4.75;;;;;;;;4971633;28;45451;-69
2022/06/23 11:35:44;;;;;;;;;7.00;5.50;;;;;;;;4972297;28;45571;-69
2022/06/23 11:38:45;;;;;;;;;4.25;4.25;;;;;;;;4972320;28;45531;-70
2022/06/23 11:41:28;;;;;;;;;5.25;5.25;;;;;;;;4950310;28;45583;-69
2022/06/23 11:44:00;;;;;;;;;4.25;4.00;;;;;;;;4949684;28;46196;-71
2022/06/23 11:46:32;;;;;;;;;4.75;4.00;;;;;;;;4949940;28;45596;-69
2022/06/23 11:49:19;;;;;;;;;5.00;5.00;;;;;;;;4950220;28;45633;-71
2022/06/23 11:52:02;;;;;;;;;4.25;4.25;;;;;;;;4950530;28;46103;-68
2022/06/23 11:54:35;;;;;;;;;5.25;5.25;;;;;;;;4966521;28;48601;-69
2022/06/23 11:57:00;;;;;;;;;4.25;4.25;;;;;;;;4949769;28;46031;-70
2022/06/23 11:59:31;;;;;;;;;4.00;4.00;;;;;;;;4950304;28;45587;-70
2022/06/23 12:01:56;;;;;;;;;5.75;5.25;;;;;;;;4949875;28;45610;-71
2022/06/23 12:04:21;;;;;;;;;4.75;4.75;;;;;;;;4949542;28;45674;-70
2022/06/23 12:06:46;;;;;;;;;5.50;4.75;;;;;;;;4950010;28;45479;-70
2022/06/23 12:09:12;;;;;;;;;4.75;4.00;;;;;;;;4966737;28;46196;-69
2022/06/23 12:11:37;;;;;;;;;4.00;4.00;;;;;;;;4965951;28;45718;-69
2022/06/23 12:14:03;;;;;;;;;7.25;5.50;;;;;;;;4949473;28;46299;-71
2022/06/23 12:16:30;;;;;;;;;4.00;4.00;;;;;;;;4970493;28;45466;-71
2022/06/23 12:18:58;;;;;;;;;5.75;4.00;;;;;;;;4969726;28;45475;-71
2022/06/23 12:21:42;;;;;;;;;5.00;5.00;;;;;;;;4967885;28;45417;-71
2022/06/23 12:24:10;;;;;;;;;6.00;6.00;;;;;;;;4971205;28;46528;-70
2022/06/23 12:26:58;;;;;;;;;4.00;4.00;;;;;;;;4971545;28;45515;-70
2022/06/23 12:29:35;;;;;;;;;6.50;5.25;;;;;;;;4971792;28;45574;-71
2022/06/23 12:32:05;;;;;;;;;3.50;3.50;;;;;;;;4971489;28;45687;-71
2022/06/23 12:34:49;;;;;;;;;4.00;4.00;;;;;;;;5002783;28;48676;-71
2022/06/23 12:37:20;;;;;;;;;4.25;4.25;;;;;;;;4956615;28;45661;-72
2022/06/23 12:39:51;;;;;;;;;4.25;4.25;;;;;;;;4971465;28;45423;-71
2022/06/23 12:42:27;;;;;;;;;5.75;5.25;;;;;;;;4971294;28;45687;-72
2022/06/23 12:44:52;;;;;;;;;4.00;4.00;;;;;;;;4971166;28;47804;-71
2022/06/23 12:47:24;;;;;;;;;4.00;4.00;;;;;;;;4971433;28;45751;-73
2022/06/23 12:49:53;;;;;;;;;4.25;4.25;;;;;;;;5002911;28;45478;-71
2022/06/23 12:52:27;;;;;;;;;4.00;4.00;;;;;;;;4968965;28;45577;-72
2022/06/23 12:54:59;;;;;;;;;3.75;3.75;;;;;;;;4971290;28;46593;-72
2022/06/23 12:57:43;;;;;;;;;4.75;4.75;;;;;;;;4970527;28;45867;-72
2022/06/23 13:00:11;;;;;;;;;4.00;4.00;;;;;;;;4991573;28;45992;-72
2022/06/23 13:02:38;;;;;;;;;4.50;4.50;;;;;;;;4962586;28;45627;-71
2022/06/23 13:05:12;;;;;;;;;4.00;4.00;;;;;;;;4962586;28;46072;-71
2022/06/23 13:07:59;;;;;;;;;2.25;2.25;;;;;;;;4971310;28;45518;-69
2022/06/23 13:10:31;;;;;;;;;6.00;6.00;;;;;;;;4988630;28;45525;-71
2022/06/23 13:12:59;;;;;;;;;4.00;4.00;;;;;;;;4971242;28;45463;-73
2022/06/23 13:15:44;;;;;;;;;4.00;4.00;;;;;;;;4989183;28;47620;-72
2022/06/23 13:18:23;;;;;;;;;3.50;3.50;;;;;;;;5001201;28;45722;-72
2022/06/23 13:21:06;;;;;;;;;4.50;4.50;;;;;;;;4971338;28;45580;-71
2022/06/23 13:23:51;;;;;;;;;4.00;4.00;;;;;;;;4971385;28;45702;-69
2022/06/23 13:26:25;;;;;;;;;6.00;5.00;;;;;;;;4970710;28;46444;-70
2022/06/23 13:28:57;;;;;;;;;6.50;4.25;;;;;;;;5002421;28;46035;-69
2022/06/23 13:31:34;;;;;;;;;3.75;3.75;;;;;;;;4968226;28;45529;-72
2022/06/23 13:34:05;;;;;;;;;3.50;3.50;;;;;;;;4969410;28;45390;-73
2022/06/23 13:36:43;;;;;;;;;3.25;3.00;;;;;;;;4971350;28;45979;-71
2022/06/23 13:39:26;;;;;;;;;4.00;4.00;;;;;;;;4970891;28;45544;-72
2022/06/23 13:42:01;;;;;;;;;5.00;3.75;;;;;;;;4993131;28;45454;-72
2022/06/23 13:44:35;;;;;;;;;3.50;3.50;;;;;;;;4965350;28;45584;-71
2022/06/23 13:47:07;;;;;;;;;5.25;4.00;;;;;;;;4970585;28;46684;-71
2022/06/23 13:49:32;;;;;;;;;4.50;4.50;;;;;;;;5002238;28;46315;-72
2022/06/23 13:52:11;;;;;;;;;4.50;4.50;;;;;;;;4968834;28;45624;-71
2022/06/23 13:54:36;;;;;;;;;4.00;4.00;;;;;;;;4966695;28;45673;-71
2022/06/23 13:57:11;;;;;;;;;2.25;2.25;;;;;;;;4969642;28;46420;-72
2022/06/23 13:59:48;;;;;;;;;3.00;3.00;;;;;;;;4970455;28;45600;-71
2022/06/23 14:02:32;;;;;;;;;3.25;3.25;;;;;;;;4997784;28;45502;-71
2022/06/23 14:05:07;;;;;;;;;5.75;4.50;;;;;;;;4961063;28;45511;-71
2022/06/23 14:07:43;;;;;;;;;3.50;3.50;;;;;;;;5001710;28;47586;-72
2022/06/23 14:10:15;;;;;;;;;4.50;4.25;;;;;;;;4970318;28;45371;-72
2022/06/23 14:12:50;;;;;;;;;4.50;3.50;;;;;;;;4971054;28;45608;-71
2022/06/23 14:15:19;;;;;;;;;2.00;2.00;;;;;;;;4968945;28;45549;-69
2022/06/23 14:18:04;;;;;;;;;4.00;4.00;;;;;;;;4967135;28;47982;-71
2022/06/23 14:20:49;;;;;;;;;4.75;4.75;;;;;;;;4970016;28;45780;-72
2022/06/23 14:23:30;;;;;;;;;4.00;4.00;;;;;;;;4969581;28;45718;-71
2022/06/23 14:25:59;;;;;;;;;4.75;4.75;;;;;;;;4970143;28;45769;-71
2022/06/23 14:28:48;;;;;;;;;5.00;5.00;;;;;;;;4969976;28;45861;-71
2022/06/23 14:31:19;;;;;;;;;4.00;4.00;;;;;;;;4948802;28;46350;-73
2022/06/23 14:33:52;;;;;;;;;3.50;3.50;;;;;;;;4970199;28;45819;-72
2022/06/23 14:36:20;;;;;;;;;3.25;3.25;;;;;;;;4970152;28;45568;-73
2022/06/23 14:38:54;;;;;;;;;4.75;4.75;;;;;;;;4969896;28;45733;-72
2022/06/23 14:41:38;;;;;;;;;4.50;4.50;;;;;;;;4969685;28;45546;-72
2022/06/23 14:44:09;;;;;;;;;5.50;4.00;;;;;;;;5001417;28;45409;-73
2022/06/23 14:46:35;;;;;;;;;3.50;3.50;;;;;;;;4969976;28;45362;-72
2022/06/23 14:49:03;;;;;;;;;6.50;5.25;;;;;;;;4969753;28;45368;-72
2022/06/23 14:51:35;;;;;;;;;4.25;4.00;;;;;;;;4970454;28;45457;-72
2022/06/23 14:54:01;;;;;;;;;6.00;4.00;;;;;;;;4969984;28;45667;-73
2022/06/23 14:56:46;;;;;;;;;4.25;4.25;;;;;;;;4969884;28;45641;-71
2022/06/23 14:59:21;;;;;;;;;4.75;4.50;;;;;;;;4996806;28;47690;-72
2022/06/23 15:01:46;;;;;;;;;5.75;4.00;;;;;;;;4958755;28;45815;-72
2022/06/23 15:04:24;;;;;;;;;5.00;5.00;;;;;;;;4971091;28;45439;-71
2022/06/23 15:06:49;;;;;;;;;6.75;5.50;;;;;;;;5004677;28;45497;-72
2022/06/23 15:09:21;;;;;;;;;4.25;4.25;;;;;;;;4973361;28;46009;-70
2022/06/23 15:11:57;;;;;;;;;4.25;4.25;;;;;;;;4973136;28;45620;-70
2022/06/23 15:14:44;;;;;;;;;5.25;4.00;;;;;;;;4973403;28;45837;-71
2022/06/23 15:17:16;;;;;;;;;3.50;3.50;;;;;;;;5000856;28;45711;-71